sensor_id;sensor_type;location;lat;lon;timestamp;P1;durP1;ratioP1;P2;durP2;ratioP2
28772;SDS011;15925;51.222;5.678;2023-04-03T00:01:38;1.67;;;1.33;;
28772;SDS011;15925;51.222;5.678;2023-04-03T00:04:04;3.35;;;1.70;;
28772;SDS011;15925;51.222;5.678;2023-04-03T00:08:56;3.33;;;2.03;;
28772;SDS011;15925;51.222;5.678;2023-04-03T00:11:22;7.00;;;1.90;;
28772;SDS011;15925;51.222;5.678;2023-04-03T00:13:48;3.90;;;1.88;;
28772;SDS011;15925;51.222;5.678;2023-04-03T00:16:14;2.10;;;1.33;;
28772;SDS011;15925;51.222;5.678;2023-04-03T00:18:40;20.13;;;2.05;;
28772;SDS011;15925;51.222;5.678;2023-04-03T00:21:06;4.40;;;2.33;;
28772;SDS011;15925;51.222;5.678;2023-04-03T00:23:33;2.78;;;1.77;;
28772;SDS011;15925;51.222;5.678;2023-04-03T00:25:59;7.35;;;1.90;;
28772;SDS011;15925;51.222;5.678;2023-04-03T00:28:25;2.50;;;1.50;;
28772;SDS011;15925;51.222;5.678;2023-04-03T00:30:52;5.72;;;2.10;;
28772;SDS011;15925;51.222;5.678;2023-04-03T00:33:18;2.65;;;1.45;;
28772;SDS011;15925;51.222;5.678;2023-04-03T00:35:47;4.13;;;1.80;;
28772;SDS011;15925;51.222;5.678;2023-04-03T00:40:42;1.40;;;1.25;;
28772;SDS011;15925;51.222;5.678;2023-04-03T00:43:11;2.90;;;2.13;;
28772;SDS011;15925;51.222;5.678;2023-04-03T00:45:44;30.05;;;2.00;;
28772;SDS011;15925;51.222;5.678;2023-04-03T00:48:14;5.00;;;1.85;;
28772;SDS011;15925;51.222;5.678;2023-04-03T00:50:43;3.10;;;1.30;;
28772;SDS011;15925;51.222;5.678;2023-04-03T00:53:21;3.03;;;1.88;;
28772;SDS011;15925;51.222;5.678;2023-04-03T00:55:51;2.22;;;2.03;;
28772;SDS011;15925;51.222;5.678;2023-04-03T00:58:21;3.17;;;1.83;;
28772;SDS011;15925;51.222;5.678;2023-04-03T01:00:58;7.28;;;1.70;;
28772;SDS011;15925;51.222;5.678;2023-04-03T01:03:25;4.00;;;1.65;;
28772;SDS011;15925;51.222;5.678;2023-04-03T01:05:52;8.25;;;2.15;;
28772;SDS011;15925;51.222;5.678;2023-04-03T01:08:18;2.63;;;2.17;;
28772;SDS011;15925;51.222;5.678;2023-04-03T01:10:44;2.13;;;1.30;;
28772;SDS011;15925;51.222;5.678;2023-04-03T01:13:21;18.38;;;2.33;;
28772;SDS011;15925;51.222;5.678;2023-04-03T01:15:57;3.28;;;2.03;;
28772;SDS011;15925;51.222;5.678;2023-04-03T01:18:27;20.23;;;1.70;;
28772;SDS011;15925;51.222;5.678;2023-04-03T01:24:11;12.25;;;1.73;;
28772;SDS011;15925;51.222;5.678;2023-04-03T01:26:29;2.05;;;1.50;;
28772;SDS011;15925;51.222;5.678;2023-04-03T01:28:55;2.15;;;1.35;;
28772;SDS011;15925;51.222;5.678;2023-04-03T01:34:05;4.45;;;1.73;;
28772;SDS011;15925;51.222;5.678;2023-04-03T01:36:31;1.48;;;1.33;;
28772;SDS011;15925;51.222;5.678;2023-04-03T01:38:58;5.25;;;2.35;;
28772;SDS011;15925;51.222;5.678;2023-04-03T01:41:25;3.50;;;1.67;;
28772;SDS011;15925;51.222;5.678;2023-04-03T01:43:58;2.58;;;1.25;;
28772;SDS011;15925;51.222;5.678;2023-04-03T01:46:24;3.95;;;2.17;;
28772;SDS011;15925;51.222;5.678;2023-04-03T01:48:50;5.18;;;2.20;;
28772;SDS011;15925;51.222;5.678;2023-04-03T01:51:16;12.50;;;2.00;;
28772;SDS011;15925;51.222;5.678;2023-04-03T01:53:42;2.47;;;2.28;;
28772;SDS011;15925;51.222;5.678;2023-04-03T01:56:08;1.23;;;1.03;;
28772;SDS011;15925;51.222;5.678;2023-04-03T01:58:34;3.40;;;2.65;;
28772;SDS011;15925;51.222;5.678;2023-04-03T02:01:00;4.85;;;1.67;;
28772;SDS011;15925;51.222;5.678;2023-04-03T02:03:28;3.63;;;1.85;;
28772;SDS011;15925;51.222;5.678;2023-04-03T02:05:53;2.05;;;1.52;;
28772;SDS011;15925;51.222;5.678;2023-04-03T02:08:19;7.95;;;2.55;;
28772;SDS011;15925;51.222;5.678;2023-04-03T02:10:49;2.50;;;1.77;;
28772;SDS011;15925;51.222;5.678;2023-04-03T02:13:16;3.10;;;2.25;;
28772;SDS011;15925;51.222;5.678;2023-04-03T02:15:43;6.82;;;2.20;;
28772;SDS011;15925;51.222;5.678;2023-04-03T02:18:10;2.22;;;1.80;;
28772;SDS011;15925;51.222;5.678;2023-04-03T02:20:36;6.13;;;3.05;;
28772;SDS011;15925;51.222;5.678;2023-04-03T02:23:04;7.65;;;2.17;;
28772;SDS011;15925;51.222;5.678;2023-04-03T02:25:31;5.72;;;2.42;;
28772;SDS011;15925;51.222;5.678;2023-04-03T02:27:57;4.07;;;2.95;;
28772;SDS011;15925;51.222;5.678;2023-04-03T02:30:23;3.03;;;2.25;;
28772;SDS011;15925;51.222;5.678;2023-04-03T02:32:49;3.22;;;2.22;;
28772;SDS011;15925;51.222;5.678;2023-04-03T02:35:15;3.75;;;1.58;;
28772;SDS011;15925;51.222;5.678;2023-04-03T02:37:41;4.38;;;2.78;;
28772;SDS011;15925;51.222;5.678;2023-04-03T02:40:07;2.80;;;2.47;;
28772;SDS011;15925;51.222;5.678;2023-04-03T02:42:34;5.35;;;2.75;;
28772;SDS011;15925;51.222;5.678;2023-04-03T02:45:02;6.00;;;2.72;;
28772;SDS011;15925;51.222;5.678;2023-04-03T02:47:31;7.97;;;2.05;;
28772;SDS011;15925;51.222;5.678;2023-04-03T02:49:56;4.15;;;2.80;;
28772;SDS011;15925;51.222;5.678;2023-04-03T02:52:22;11.97;;;2.07;;
28772;SDS011;15925;51.222;5.678;2023-04-03T02:54:50;7.32;;;1.98;;
28772;SDS011;15925;51.222;5.678;2023-04-03T02:57:16;2.40;;;1.80;;
28772;SDS011;15925;51.222;5.678;2023-04-03T02:59:42;8.02;;;2.83;;
28772;SDS011;15925;51.222;5.678;2023-04-03T03:02:10;5.85;;;2.65;;
28772;SDS011;15925;51.222;5.678;2023-04-03T03:04:36;2.08;;;1.80;;
28772;SDS011;15925;51.222;5.678;2023-04-03T03:07:02;6.80;;;2.67;;
28772;SDS011;15925;51.222;5.678;2023-04-03T03:09:28;5.05;;;3.55;;
28772;SDS011;15925;51.222;5.678;2023-04-03T03:11:55;8.68;;;2.97;;
28772;SDS011;15925;51.222;5.678;2023-04-03T03:14:21;20.23;;;2.67;;
28772;SDS011;15925;51.222;5.678;2023-04-03T03:16:47;2.75;;;1.50;;
28772;SDS011;15925;51.222;5.678;2023-04-03T03:19:14;12.90;;;2.72;;
28772;SDS011;15925;51.222;5.678;2023-04-03T03:21:40;6.50;;;2.65;;
28772;SDS011;15925;51.222;5.678;2023-04-03T03:24:06;8.53;;;3.23;;
28772;SDS011;15925;51.222;5.678;2023-04-03T03:26:32;3.42;;;2.40;;
28772;SDS011;15925;51.222;5.678;2023-04-03T03:28:58;9.00;;;3.80;;
28772;SDS011;15925;51.222;5.678;2023-04-03T03:31:25;3.50;;;2.00;;
28772;SDS011;15925;51.222;5.678;2023-04-03T03:33:51;4.43;;;2.38;;
28772;SDS011;15925;51.222;5.678;2023-04-03T03:38:43;5.07;;;2.92;;
28772;SDS011;15925;51.222;5.678;2023-04-03T03:41:09;3.33;;;2.50;;
28772;SDS011;15925;51.222;5.678;2023-04-03T03:43:36;6.60;;;2.90;;
28772;SDS011;15925;51.222;5.678;2023-04-03T03:46:03;6.07;;;3.33;;
28772;SDS011;15925;51.222;5.678;2023-04-03T03:48:30;2.80;;;2.17;;
28772;SDS011;15925;51.222;5.678;2023-04-03T03:50:56;15.68;;;2.30;;
28772;SDS011;15925;51.222;5.678;2023-04-03T03:53:25;14.05;;;3.00;;
28772;SDS011;15925;51.222;5.678;2023-04-03T03:55:55;3.63;;;2.88;;
28772;SDS011;15925;51.222;5.678;2023-04-03T03:58:23;5.93;;;3.20;;
28772;SDS011;15925;51.222;5.678;2023-04-03T04:00:49;5.85;;;2.30;;
28772;SDS011;15925;51.222;5.678;2023-04-03T04:05:44;2.88;;;2.30;;
28772;SDS011;15925;51.222;5.678;2023-04-03T04:08:10;3.72;;;2.45;;
28772;SDS011;15925;51.222;5.678;2023-04-03T04:10:37;6.70;;;2.13;;
28772;SDS011;15925;51.222;5.678;2023-04-03T04:13:04;2.65;;;1.60;;
28772;SDS011;15925;51.222;5.678;2023-04-03T04:15:30;3.42;;;2.33;;
28772;SDS011;15925;51.222;5.678;2023-04-03T04:17:57;3.53;;;2.40;;
28772;SDS011;15925;51.222;5.678;2023-04-03T04:22:49;2.10;;;1.52;;
28772;SDS011;15925;51.222;5.678;2023-04-03T04:25:16;2.88;;;2.55;;
28772;SDS011;15925;51.222;5.678;2023-04-03T04:27:43;16.42;;;2.28;;
28772;SDS011;15925;51.222;5.678;2023-04-03T04:30:11;8.40;;;1.58;;
28772;SDS011;15925;51.222;5.678;2023-04-03T04:32:38;2.58;;;1.95;;
28772;SDS011;15925;51.222;5.678;2023-04-03T04:35:04;7.15;;;2.72;;
28772;SDS011;15925;51.222;5.678;2023-04-03T04:37:32;10.70;;;2.53;;
28772;SDS011;15925;51.222;5.678;2023-04-03T04:39:59;11.98;;;2.25;;
28772;SDS011;15925;51.222;5.678;2023-04-03T04:42:25;10.82;;;2.28;;
28772;SDS011;15925;51.222;5.678;2023-04-03T04:44:51;1.90;;;1.55;;
28772;SDS011;15925;51.222;5.678;2023-04-03T04:47:17;3.40;;;2.03;;
28772;SDS011;15925;51.222;5.678;2023-04-03T04:49:43;2.53;;;1.58;;
28772;SDS011;15925;51.222;5.678;2023-04-03T04:52:09;2.75;;;1.73;;
28772;SDS011;15925;51.222;5.678;2023-04-03T04:54:37;4.75;;;1.67;;
28772;SDS011;15925;51.222;5.678;2023-04-03T04:57:03;3.47;;;1.80;;
28772;SDS011;15925;51.222;5.678;2023-04-03T04:59:29;9.57;;;1.88;;
28772;SDS011;15925;51.222;5.678;2023-04-03T05:01:57;8.90;;;1.58;;
28772;SDS011;15925;51.222;5.678;2023-04-03T05:04:24;11.20;;;2.08;;
28772;SDS011;15925;51.222;5.678;2023-04-03T05:06:55;4.75;;;2.00;;
28772;SDS011;15925;51.222;5.678;2023-04-03T05:09:25;9.98;;;2.28;;
28772;SDS011;15925;51.222;5.678;2023-04-03T05:14:21;2.78;;;1.73;;
28772;SDS011;15925;51.222;5.678;2023-04-03T05:16:47;3.50;;;1.63;;
28772;SDS011;15925;51.222;5.678;2023-04-03T05:19:13;2.35;;;1.60;;
28772;SDS011;15925;51.222;5.678;2023-04-03T05:21:40;3.47;;;2.10;;
28772;SDS011;15925;51.222;5.678;2023-04-03T05:24:10;3.00;;;1.58;;
28772;SDS011;15925;51.222;5.678;2023-04-03T05:26:39;8.23;;;1.88;;
28772;SDS011;15925;51.222;5.678;2023-04-03T05:29:06;4.60;;;1.48;;
28772;SDS011;15925;51.222;5.678;2023-04-03T05:31:32;12.13;;;2.15;;
28772;SDS011;15925;51.222;5.678;2023-04-03T05:33:58;3.13;;;1.67;;
28772;SDS011;15925;51.222;5.678;2023-04-03T05:36:28;3.05;;;1.77;;
28772;SDS011;15925;51.222;5.678;2023-04-03T05:38:59;2.88;;;1.73;;
28772;SDS011;15925;51.222;5.678;2023-04-03T05:41:25;1.95;;;1.75;;
28772;SDS011;15925;51.222;5.678;2023-04-03T05:43:51;8.50;;;2.15;;
28772;SDS011;15925;51.222;5.678;2023-04-03T05:46:19;4.15;;;1.55;;
28772;SDS011;15925;51.222;5.678;2023-04-03T05:48:50;2.65;;;1.42;;
28772;SDS011;15925;51.222;5.678;2023-04-03T05:51:28;0.70;;;0.70;;
28772;SDS011;15925;51.222;5.678;2023-04-03T05:54:17;2.92;;;1.35;;
28772;SDS011;15925;51.222;5.678;2023-04-03T05:56:51;5.97;;;0.80;;
28772;SDS011;15925;51.222;5.678;2023-04-03T05:59:19;1.85;;;1.10;;
28772;SDS011;15925;51.222;5.678;2023-04-03T06:01:48;8.10;;;1.63;;
28772;SDS011;15925;51.222;5.678;2023-04-03T06:04:14;2.20;;;1.80;;
28772;SDS011;15925;51.222;5.678;2023-04-03T06:06:51;8.50;;;1.20;;
28772;SDS011;15925;51.222;5.678;2023-04-03T06:09:22;9.70;;;2.28;;
28772;SDS011;15925;51.222;5.678;2023-04-03T06:11:50;4.68;;;1.42;;
28772;SDS011;15925;51.222;5.678;2023-04-03T06:14:17;12.10;;;1.95;;
28772;SDS011;15925;51.222;5.678;2023-04-03T06:16:43;5.35;;;2.10;;
28772;SDS011;15925;51.222;5.678;2023-04-03T06:19:10;1.35;;;0.88;;
28772;SDS011;15925;51.222;5.678;2023-04-03T06:21:40;4.88;;;1.67;;
28772;SDS011;15925;51.222;5.678;2023-04-03T06:24:07;1.38;;;1.10;;
28772;SDS011;15925;51.222;5.678;2023-04-03T06:26:33;8.35;;;1.83;;
28772;SDS011;15925;51.222;5.678;2023-04-03T06:29:00;5.10;;;1.05;;
28772;SDS011;15925;51.222;5.678;2023-04-03T06:33:52;6.55;;;1.13;;
28772;SDS011;15925;51.222;5.678;2023-04-03T06:36:18;5.97;;;1.60;;
28772;SDS011;15925;51.222;5.678;2023-04-03T06:38:45;9.40;;;1.80;;
28772;SDS011;15925;51.222;5.678;2023-04-03T06:41:12;2.38;;;1.13;;
28772;SDS011;15925;51.222;5.678;2023-04-03T06:43:38;4.93;;;0.98;;
28772;SDS011;15925;51.222;5.678;2023-04-03T06:46:03;13.87;;;1.37;;
28772;SDS011;15925;51.222;5.678;2023-04-03T06:48:30;1.08;;;0.73;;
28772;SDS011;15925;51.222;5.678;2023-04-03T06:50:56;9.63;;;1.27;;
28772;SDS011;15925;51.222;5.678;2023-04-03T06:53:22;4.53;;;2.47;;
28772;SDS011;15925;51.222;5.678;2023-04-03T06:55:48;2.22;;;0.82;;
28772;SDS011;15925;51.222;5.678;2023-04-03T06:58:14;2.40;;;0.85;;
28772;SDS011;15925;51.222;5.678;2023-04-03T07:00:42;3.10;;;1.17;;
28772;SDS011;15925;51.222;5.678;2023-04-03T07:03:08;6.55;;;2.85;;
28772;SDS011;15925;51.222;5.678;2023-04-03T07:05:33;3.87;;;1.30;;
28772;SDS011;15925;51.222;5.678;2023-04-03T07:07:59;17.77;;;2.25;;
28772;SDS011;15925;51.222;5.678;2023-04-03T07:10:25;3.15;;;0.80;;
28772;SDS011;15925;51.222;5.678;2023-04-03T07:12:51;3.35;;;0.73;;
28772;SDS011;15925;51.222;5.678;2023-04-03T07:15:17;1.42;;;0.65;;
28772;SDS011;15925;51.222;5.678;2023-04-03T07:17:43;6.20;;;1.40;;
28772;SDS011;15925;51.222;5.678;2023-04-03T07:20:09;2.70;;;1.40;;
28772;SDS011;15925;51.222;5.678;2023-04-03T07:22:36;3.90;;;1.25;;
28772;SDS011;15925;51.222;5.678;2023-04-03T07:25:02;2.20;;;1.02;;
28772;SDS011;15925;51.222;5.678;2023-04-03T07:27:31;4.22;;;2.00;;
28772;SDS011;15925;51.222;5.678;2023-04-03T07:29:58;3.45;;;1.10;;
28772;SDS011;15925;51.222;5.678;2023-04-03T07:32:24;4.60;;;1.37;;
28772;SDS011;15925;51.222;5.678;2023-04-03T07:34:50;1.33;;;0.90;;
28772;SDS011;15925;51.222;5.678;2023-04-03T07:37:16;2.20;;;1.50;;
28772;SDS011;15925;51.222;5.678;2023-04-03T07:39:43;4.38;;;1.63;;
28772;SDS011;15925;51.222;5.678;2023-04-03T07:42:10;2.95;;;1.20;;
28772;SDS011;15925;51.222;5.678;2023-04-03T07:44:37;9.13;;;1.10;;
28772;SDS011;15925;51.222;5.678;2023-04-03T07:47:03;2.75;;;1.42;;
28772;SDS011;15925;51.222;5.678;2023-04-03T07:49:29;0.93;;;0.40;;
28772;SDS011;15925;51.222;5.678;2023-04-03T07:51:55;0.47;;;0.47;;
28772;SDS011;15925;51.222;5.678;2023-04-03T07:54:20;4.63;;;1.37;;
28772;SDS011;15925;51.222;5.678;2023-04-03T07:56:46;7.82;;;1.00;;
28772;SDS011;15925;51.222;5.678;2023-04-03T07:59:12;3.38;;;1.35;;
28772;SDS011;15925;51.222;5.678;2023-04-03T08:01:38;5.83;;;1.40;;
28772;SDS011;15925;51.222;5.678;2023-04-03T08:04:04;2.65;;;1.48;;
28772;SDS011;15925;51.222;5.678;2023-04-03T08:06:31;11.98;;;1.30;;
28772;SDS011;15925;51.222;5.678;2023-04-03T08:09:01;5.05;;;1.55;;
28772;SDS011;15925;51.222;5.678;2023-04-03T08:11:29;1.90;;;1.25;;
28772;SDS011;15925;51.222;5.678;2023-04-03T08:13:56;1.55;;;0.90;;
28772;SDS011;15925;51.222;5.678;2023-04-03T08:16:22;5.07;;;1.48;;
28772;SDS011;15925;51.222;5.678;2023-04-03T08:18:52;3.53;;;1.27;;
28772;SDS011;15925;51.222;5.678;2023-04-03T08:23:44;2.78;;;1.52;;
28772;SDS011;15925;51.222;5.678;2023-04-03T08:26:14;4.43;;;1.00;;
28772;SDS011;15925;51.222;5.678;2023-04-03T08:28:41;0.68;;;0.68;;
28772;SDS011;15925;51.222;5.678;2023-04-03T08:31:11;4.13;;;0.68;;
28772;SDS011;15925;51.222;5.678;2023-04-03T08:33:40;4.85;;;1.02;;
28772;SDS011;15925;51.222;5.678;2023-04-03T08:36:07;15.55;;;1.45;;
28772;SDS011;15925;51.222;5.678;2023-04-03T08:38:41;2.42;;;0.70;;
28772;SDS011;15925;51.222;5.678;2023-04-03T08:43:56;0.63;;;0.40;;
28772;SDS011;15925;51.222;5.678;2023-04-03T08:46:46;0.98;;;0.70;;
28772;SDS011;15925;51.222;5.678;2023-04-03T08:52:20;3.83;;;0.82;;
28772;SDS011;15925;51.222;5.678;2023-04-03T08:54:56;7.00;;;0.77;;
28772;SDS011;15925;51.222;5.678;2023-04-03T08:57:28;1.92;;;0.95;;
28772;SDS011;15925;51.222;5.678;2023-04-03T09:00:05;1.42;;;0.38;;
28772;SDS011;15925;51.222;5.678;2023-04-03T09:02:42;3.13;;;0.60;;
28772;SDS011;15925;51.222;5.678;2023-04-03T09:05:16;2.63;;;1.02;;
28772;SDS011;15925;51.222;5.678;2023-04-03T09:08:27;1.63;;;0.90;;
28772;SDS011;15925;51.222;5.678;2023-04-03T09:11:09;2.67;;;1.00;;
28772;SDS011;15925;51.222;5.678;2023-04-03T09:16:47;0.30;;;0.30;;
28772;SDS011;15925;51.222;5.678;2023-04-03T09:21:51;3.15;;;1.23;;
28772;SDS011;15925;51.222;5.678;2023-04-03T09:24:17;3.03;;;0.85;;
28772;SDS011;15925;51.222;5.678;2023-04-03T09:29:24;2.75;;;1.10;;
28772;SDS011;15925;51.222;5.678;2023-04-03T09:32:00;3.63;;;0.30;;
28772;SDS011;15925;51.222;5.678;2023-04-03T09:34:31;0.85;;;0.40;;
28772;SDS011;15925;51.222;5.678;2023-04-03T09:37:01;3.42;;;0.68;;
28772;SDS011;15925;51.222;5.678;2023-04-03T09:39:31;0.40;;;0.40;;
28772;SDS011;15925;51.222;5.678;2023-04-03T09:44:55;0.50;;;0.40;;
28772;SDS011;15925;51.222;5.678;2023-04-03T09:52:40;2.38;;;0.70;;
28772;SDS011;15925;51.222;5.678;2023-04-03T09:55:10;4.22;;;0.60;;
28772;SDS011;15925;51.222;5.678;2023-04-03T09:57:39;0.55;;;0.55;;
28772;SDS011;15925;51.222;5.678;2023-04-03T10:00:05;1.17;;;0.67;;
28772;SDS011;15925;51.222;5.678;2023-04-03T10:02:44;2.90;;;0.43;;
28772;SDS011;15925;51.222;5.678;2023-04-03T10:08:09;13.73;;;0.60;;
28772;SDS011;15925;51.222;5.678;2023-04-03T10:10:45;0.70;;;0.45;;
28772;SDS011;15925;51.222;5.678;2023-04-03T10:13:14;0.20;;;0.20;;
28772;SDS011;15925;51.222;5.678;2023-04-03T10:15:44;0.60;;;0.38;;
28772;SDS011;15925;51.222;5.678;2023-04-03T10:18:28;2.38;;;0.52;;
28772;SDS011;15925;51.222;5.678;2023-04-03T10:20:55;5.00;;;0.85;;
28772;SDS011;15925;51.222;5.678;2023-04-03T10:23:37;4.13;;;0.50;;
28772;SDS011;15925;51.222;5.678;2023-04-03T10:32:02;1.10;;;0.63;;
28772;SDS011;15925;51.222;5.678;2023-04-03T10:35:02;0.70;;;0.60;;
28772;SDS011;15925;51.222;5.678;2023-04-03T10:37:42;1.17;;;0.30;;
28772;SDS011;15925;51.222;5.678;2023-04-03T10:53:55;0.68;;;0.40;;
28772;SDS011;15925;51.222;5.678;2023-04-03T11:01:51;8.00;;;0.35;;
28772;SDS011;15925;51.222;5.678;2023-04-03T11:04:21;0.30;;;0.30;;
28772;SDS011;15925;51.222;5.678;2023-04-03T11:09:34;8.27;;;0.65;;
28772;SDS011;15925;51.222;5.678;2023-04-03T11:12:23;3.92;;;0.50;;
28772;SDS011;15925;51.222;5.678;2023-04-03T11:14:53;0.50;;;0.25;;
28772;SDS011;15925;51.222;5.678;2023-04-03T11:17:26;1.17;;;0.63;;
28772;SDS011;15925;51.222;5.678;2023-04-03T11:19:59;1.70;;;0.43;;
28772;SDS011;15925;51.222;5.678;2023-04-03T11:22:32;1.10;;;0.32;;
28772;SDS011;15925;51.222;5.678;2023-04-03T11:27:42;1.17;;;0.52;;
28772;SDS011;15925;51.222;5.678;2023-04-03T11:36:27;6.57;;;0.60;;
28772;SDS011;15925;51.222;5.678;2023-04-03T11:41:49;0.47;;;0.17;;
28772;SDS011;15925;51.222;5.678;2023-04-03T11:46:55;0.25;;;0.25;;
28772;SDS011;15925;51.222;5.678;2023-04-03T12:05:47;1.23;;;0.75;;
28772;SDS011;15925;51.222;5.678;2023-04-03T12:13:34;5.10;;;0.80;;
28772;SDS011;15925;51.222;5.678;2023-04-03T12:16:33;2.08;;;1.08;;
28772;SDS011;15925;51.222;5.678;2023-04-03T12:24:31;0.43;;;0.38;;
28772;SDS011;15925;51.222;5.678;2023-04-03T12:27:12;1.30;;;0.30;;
28772;SDS011;15925;51.222;5.678;2023-04-03T12:43:06;1.90;;;0.63;;
28772;SDS011;15925;51.222;5.678;2023-04-03T12:45:47;2.53;;;0.70;;
28772;SDS011;15925;51.222;5.678;2023-04-03T12:48:26;0.73;;;0.25;;
28772;SDS011;15925;51.222;5.678;2023-04-03T12:50:54;1.40;;;0.85;;
28772;SDS011;15925;51.222;5.678;2023-04-03T12:53:21;1.48;;;0.32;;
28772;SDS011;15925;51.222;5.678;2023-04-03T12:56:27;3.80;;;0.57;;
28772;SDS011;15925;51.222;5.678;2023-04-03T12:58:55;1.30;;;0.43;;
28772;SDS011;15925;51.222;5.678;2023-04-03T13:01:37;1.73;;;0.55;;
28772;SDS011;15925;51.222;5.678;2023-04-03T13:04:03;3.60;;;0.43;;
28772;SDS011;15925;51.222;5.678;2023-04-03T13:06:42;0.10;;;0.10;;
28772;SDS011;15925;51.222;5.678;2023-04-03T13:09:19;5.53;;;0.82;;
28772;SDS011;15925;51.222;5.678;2023-04-03T13:11:56;1.00;;;0.50;;
28772;SDS011;15925;51.222;5.678;2023-04-03T13:14:26;2.10;;;0.80;;
28772;SDS011;15925;51.222;5.678;2023-04-03T13:16:54;0.45;;;0.32;;
28772;SDS011;15925;51.222;5.678;2023-04-03T13:19:40;4.15;;;0.60;;
28772;SDS011;15925;51.222;5.678;2023-04-03T13:22:08;1.45;;;0.43;;
28772;SDS011;15925;51.222;5.678;2023-04-03T13:24:47;2.25;;;0.30;;
28772;SDS011;15925;51.222;5.678;2023-04-03T13:27:15;3.75;;;1.20;;
28772;SDS011;15925;51.222;5.678;2023-04-03T13:32:14;0.90;;;0.47;;
28772;SDS011;15925;51.222;5.678;2023-04-03T13:34:49;0.98;;;0.40;;
28772;SDS011;15925;51.222;5.678;2023-04-03T13:37:19;1.88;;;0.50;;
28772;SDS011;15925;51.222;5.678;2023-04-03T13:40:01;0.77;;;0.65;;
28772;SDS011;15925;51.222;5.678;2023-04-03T13:42:37;1.30;;;0.17;;
28772;SDS011;15925;51.222;5.678;2023-04-03T13:47:42;0.80;;;0.30;;
28772;SDS011;15925;51.222;5.678;2023-04-03T13:50:19;4.47;;;0.77;;
28772;SDS011;15925;51.222;5.678;2023-04-03T13:55:56;2.30;;;0.60;;
28772;SDS011;15925;51.222;5.678;2023-04-03T13:58:29;0.70;;;0.45;;
28772;SDS011;15925;51.222;5.678;2023-04-03T14:01:01;2.42;;;0.98;;
28772;SDS011;15925;51.222;5.678;2023-04-03T14:06:13;0.45;;;0.38;;
28772;SDS011;15925;51.222;5.678;2023-04-03T14:08:41;2.17;;;0.50;;
28772;SDS011;15925;51.222;5.678;2023-04-03T14:11:13;1.90;;;0.65;;
28772;SDS011;15925;51.222;5.678;2023-04-03T14:13:49;0.60;;;0.40;;
28772;SDS011;15925;51.222;5.678;2023-04-03T14:16:18;5.05;;;0.68;;
28772;SDS011;15925;51.222;5.678;2023-04-03T14:18:47;1.92;;;0.93;;
28772;SDS011;15925;51.222;5.678;2023-04-03T14:21:15;7.70;;;1.30;;
28772;SDS011;15925;51.222;5.678;2023-04-03T14:23:42;1.23;;;0.90;;
28772;SDS011;15925;51.222;5.678;2023-04-03T14:26:12;2.65;;;0.93;;
28772;SDS011;15925;51.222;5.678;2023-04-03T14:28:43;4.00;;;0.57;;
28772;SDS011;15925;51.222;5.678;2023-04-03T14:31:14;0.50;;;0.50;;
28772;SDS011;15925;51.222;5.678;2023-04-03T14:33:41;0.93;;;0.75;;
28772;SDS011;15925;51.222;5.678;2023-04-03T14:36:14;3.63;;;1.33;;
28772;SDS011;15925;51.222;5.678;2023-04-03T14:38:45;3.20;;;0.68;;
28772;SDS011;15925;51.222;5.678;2023-04-03T14:41:12;3.88;;;0.73;;
28772;SDS011;15925;51.222;5.678;2023-04-03T14:43:39;3.00;;;1.05;;
28772;SDS011;15925;51.222;5.678;2023-04-03T14:46:09;5.25;;;0.80;;
28772;SDS011;15925;51.222;5.678;2023-04-03T14:48:41;2.17;;;0.60;;
28772;SDS011;15925;51.222;5.678;2023-04-03T14:51:09;12.82;;;2.05;;
28772;SDS011;15925;51.222;5.678;2023-04-03T14:53:37;11.65;;;0.85;;
28772;SDS011;15925;51.222;5.678;2023-04-03T14:56:08;1.92;;;0.65;;
28772;SDS011;15925;51.222;5.678;2023-04-03T14:58:38;2.55;;;0.50;;
28772;SDS011;15925;51.222;5.678;2023-04-03T15:01:04;1.57;;;0.67;;
28772;SDS011;15925;51.222;5.678;2023-04-03T15:03:30;0.63;;;0.50;;
28772;SDS011;15925;51.222;5.678;2023-04-03T15:05:56;0.60;;;0.37;;
28772;SDS011;15925;51.222;5.678;2023-04-03T15:08:23;1.35;;;0.43;;
28772;SDS011;15925;51.222;5.678;2023-04-03T15:10:51;0.57;;;0.50;;
28772;SDS011;15925;51.222;5.678;2023-04-03T15:15:44;1.75;;;0.80;;
28772;SDS011;15925;51.222;5.678;2023-04-03T15:18:11;1.35;;;0.60;;
28772;SDS011;15925;51.222;5.678;2023-04-03T15:20:41;3.80;;;0.73;;
28772;SDS011;15925;51.222;5.678;2023-04-03T15:23:08;4.45;;;0.50;;
28772;SDS011;15925;51.222;5.678;2023-04-03T15:25:35;1.02;;;0.60;;
28772;SDS011;15925;51.222;5.678;2023-04-03T15:28:01;3.37;;;1.00;;
28772;SDS011;15925;51.222;5.678;2023-04-03T15:30:27;1.23;;;0.50;;
28772;SDS011;15925;51.222;5.678;2023-04-03T15:32:53;0.95;;;0.63;;
28772;SDS011;15925;51.222;5.678;2023-04-03T15:35:19;0.53;;;0.30;;
28772;SDS011;15925;51.222;5.678;2023-04-03T15:37:45;1.05;;;0.65;;
28772;SDS011;15925;51.222;5.678;2023-04-03T15:40:11;3.72;;;0.70;;
28772;SDS011;15925;51.222;5.678;2023-04-03T15:42:37;0.85;;;0.60;;
28772;SDS011;15925;51.222;5.678;2023-04-03T15:45:03;1.90;;;0.57;;
28772;SDS011;15925;51.222;5.678;2023-04-03T15:47:29;1.88;;;0.43;;
28772;SDS011;15925;51.222;5.678;2023-04-03T15:49:55;2.47;;;0.68;;
28772;SDS011;15925;51.222;5.678;2023-04-03T15:52:21;6.97;;;1.45;;
28772;SDS011;15925;51.222;5.678;2023-04-03T15:54:47;0.35;;;0.20;;
28772;SDS011;15925;51.222;5.678;2023-04-03T15:57:13;3.90;;;1.37;;
28772;SDS011;15925;51.222;5.678;2023-04-03T15:59:38;2.23;;;0.70;;
28772;SDS011;15925;51.222;5.678;2023-04-03T16:02:06;10.48;;;0.95;;
28772;SDS011;15925;51.222;5.678;2023-04-03T16:04:35;3.45;;;0.85;;
28772;SDS011;15925;51.222;5.678;2023-04-03T16:07:01;6.90;;;0.47;;
28772;SDS011;15925;51.222;5.678;2023-04-03T16:09:28;2.33;;;0.50;;
28772;SDS011;15925;51.222;5.678;2023-04-03T16:14:21;0.30;;;0.25;;
28772;SDS011;15925;51.222;5.678;2023-04-03T16:16:47;1.07;;;0.93;;
28772;SDS011;15925;51.222;5.678;2023-04-03T16:19:13;0.30;;;0.30;;
28772;SDS011;15925;51.222;5.678;2023-04-03T16:21:38;1.00;;;0.67;;
28772;SDS011;15925;51.222;5.678;2023-04-03T16:24:05;2.08;;;0.65;;
28772;SDS011;15925;51.222;5.678;2023-04-03T16:26:31;3.15;;;0.47;;
28772;SDS011;15925;51.222;5.678;2023-04-03T16:28:57;1.80;;;0.45;;
28772;SDS011;15925;51.222;5.678;2023-04-03T16:31:23;1.10;;;0.70;;
28772;SDS011;15925;51.222;5.678;2023-04-03T16:33:51;1.38;;;0.68;;
28772;SDS011;15925;51.222;5.678;2023-04-03T16:36:17;1.08;;;0.38;;
28772;SDS011;15925;51.222;5.678;2023-04-03T16:38:43;0.45;;;0.30;;
28772;SDS011;15925;51.222;5.678;2023-04-03T16:41:09;0.40;;;0.27;;
28772;SDS011;15925;51.222;5.678;2023-04-03T16:43:34;2.80;;;0.33;;
28772;SDS011;15925;51.222;5.678;2023-04-03T16:46:02;0.40;;;0.40;;
28772;SDS011;15925;51.222;5.678;2023-04-03T16:48:28;2.53;;;0.70;;
28772;SDS011;15925;51.222;5.678;2023-04-03T16:53:21;1.90;;;0.38;;
28772;SDS011;15925;51.222;5.678;2023-04-03T16:55:47;2.50;;;0.40;;
28772;SDS011;15925;51.222;5.678;2023-04-03T16:58:13;5.63;;;1.02;;
28772;SDS011;15925;51.222;5.678;2023-04-03T17:00:40;0.88;;;0.20;;
28772;SDS011;15925;51.222;5.678;2023-04-03T17:03:06;2.55;;;0.70;;
28772;SDS011;15925;51.222;5.678;2023-04-03T17:05:32;3.20;;;0.77;;
28772;SDS011;15925;51.222;5.678;2023-04-03T17:07:58;5.53;;;0.93;;
28772;SDS011;15925;51.222;5.678;2023-04-03T17:10:24;0.73;;;0.37;;
28772;SDS011;15925;51.222;5.678;2023-04-03T17:15:16;1.27;;;0.60;;
28772;SDS011;15925;51.222;5.678;2023-04-03T17:17:42;3.17;;;0.53;;
28772;SDS011;15925;51.222;5.678;2023-04-03T17:20:08;4.83;;;0.93;;
28772;SDS011;15925;51.222;5.678;2023-04-03T17:22:35;3.03;;;0.98;;
28772;SDS011;15925;51.222;5.678;2023-04-03T17:25:02;9.25;;;0.90;;
28772;SDS011;15925;51.222;5.678;2023-04-03T17:27:28;4.88;;;0.47;;
28772;SDS011;15925;51.222;5.678;2023-04-03T17:29:54;3.50;;;0.38;;